Hurghada, Egypt
Current Conditions -  °F | °C
As of 10:00 AM on Friday 24 Oct 2014 (Local Time) from HEGN Reporting Station
Clear Clear  
Wind Chill: 88°   Ceiling: Unl
Heat Index: 88°   Visibility: 6mi
Dew Point: 46°   Wind: 16mph
Humidity: 24%   Direction: 340°NNW
Pressure: 30"   Gusts: NA
Location:  27.23°N, 33.83°E
Report Text: HEGN 240800Z 34014KT CAVOK 31/08 Q1016 NOSIG
Loading
Personal Weather Stations






























Interactive Weather Map
Tropical Storm Tracking
New forecast layout! Learn more

10-Day Weather Forecast

Advertisements
Track Severe Weather on mobile